createdAt,value
2022-11-16T00:04:33.517Z,73.21
2022-11-16T00:09:36.756Z,73.37
2022-11-16T00:14:39.129Z,73.23
2022-11-16T00:19:42.422Z,74.06
2022-11-16T00:24:45.472Z,73.66
2022-11-16T00:29:47.953Z,73.76
2022-11-16T00:34:50.116Z,73.35
2022-11-16T00:39:52.296Z,73.50
2022-11-16T00:44:54.503Z,73.80
2022-11-16T00:49:56.689Z,73.85
2022-11-16T00:54:58.896Z,73.63
2022-11-16T01:00:01.129Z,73.80
2022-11-16T01:05:03.495Z,74.26
2022-11-16T01:10:13.376Z,73.80
2022-11-16T01:15:16.109Z,74.07
2022-11-16T01:20:20.565Z,73.57
2022-11-16T01:25:22.904Z,73.86
2022-11-16T01:30:25.122Z,74.02
2022-11-16T01:35:27.645Z,73.77
2022-11-16T01:40:29.854Z,73.78
2022-11-16T01:45:38.770Z,74.08
2022-11-16T01:50:41.810Z,73.89
2022-11-16T01:55:47.114Z,73.74
2022-11-16T02:00:49.647Z,73.85
2022-11-16T02:06:23.036Z,73.83
2022-11-16T02:11:32.995Z,74.34
2022-11-16T02:16:40.855Z,74.17
2022-11-16T02:21:59.509Z,74.04
2022-11-16T02:27:20.320Z,74.68
2022-11-16T02:32:38.702Z,74.21
2022-11-16T02:37:48.213Z,74.16
2022-11-16T02:42:55.706Z,74.65
2022-11-16T02:48:03.994Z,74.39
2022-11-16T02:53:06.210Z,74.87
2022-11-16T02:58:13.163Z,74.69
2022-11-16T03:03:45.522Z,75.04
2022-11-16T03:08:56.002Z,74.81
2022-11-16T03:14:02.456Z,74.23
2022-11-16T03:19:11.190Z,74.30
2022-11-16T03:24:14.952Z,74.31
2022-11-16T03:29:41.832Z,74.78
2022-11-16T03:34:55.407Z,74.85
2022-11-16T03:40:01.588Z,75.05
2022-11-16T03:45:05.306Z,74.52
2022-11-16T03:50:08.713Z,74.70
2022-11-16T03:55:11.117Z,74.88
2022-11-16T04:00:13.621Z,74.49
2022-11-16T04:05:34.474Z,74.50
2022-11-16T04:10:54.911Z,74.71
2022-11-16T04:16:15.573Z,74.81
2022-11-16T04:21:51.172Z,74.53
2022-11-16T04:27:15.990Z,74.48
2022-11-16T04:32:36.939Z,74.24
2022-11-16T04:37:52.889Z,74.43
2022-11-16T04:42:57.150Z,74.09
2022-11-16T04:47:59.325Z,74.37
2022-11-16T04:53:01.913Z,74.27
2022-11-16T04:58:04.733Z,74.16
2022-11-16T05:03:06.952Z,74.45
2022-11-16T05:08:09.538Z,74.25
2022-11-16T05:13:11.764Z,74.17
2022-11-16T05:18:13.994Z,75.05
2022-11-16T05:23:36.127Z,74.42
2022-11-16T05:28:38.421Z,74.52
2022-11-16T05:33:40.788Z,74.45
2022-11-16T05:38:43.042Z,74.62
2022-11-16T05:43:47.601Z,74.22
2022-11-16T05:48:50.392Z,75.22
2022-11-16T05:53:52.734Z,74.38
2022-11-16T05:58:55.413Z,74.42
2022-11-16T06:04:03.550Z,74.11
2022-11-16T06:09:06.170Z,74.34
2022-11-16T06:14:08.605Z,74.35
2022-11-16T06:19:10.908Z,74.63
2022-11-16T06:24:13.151Z,74.22
2022-11-16T06:29:15.480Z,74.73
2022-11-16T06:34:17.905Z,74.05
2022-11-16T06:39:20.105Z,74.50
2022-11-16T06:44:22.344Z,74.28
2022-11-16T06:49:24.542Z,74.50
2022-11-16T06:54:26.763Z,74.58
2022-11-16T06:59:28.974Z,74.16
2022-11-16T07:04:33.178Z,73.95
2022-11-16T07:09:35.412Z,74.24
2022-11-16T07:14:38.360Z,73.95
2022-11-16T07:19:40.711Z,74.29
2022-11-16T07:24:42.949Z,74.55
2022-11-16T07:29:45.189Z,74.89
2022-11-16T07:34:47.412Z,74.83
2022-11-16T07:39:49.593Z,74.41
2022-11-16T07:44:51.766Z,75.01
2022-11-16T07:49:54.125Z,74.69
2022-11-16T07:54:56.486Z,74.93
2022-11-16T07:59:58.711Z,74.87
2022-11-16T08:05:00.948Z,74.55
2022-11-16T08:10:03.599Z,74.97
2022-11-16T08:15:06.229Z,75.07
2022-11-16T08:20:10.035Z,75.27
2022-11-16T08:25:12.802Z,76.16
2022-11-16T08:30:15.466Z,76.42
2022-11-16T08:35:18.562Z,75.76
2022-11-16T08:40:20.764Z,75.32
2022-11-16T08:45:23.632Z,75.28
2022-11-16T08:50:26.073Z,75.00
2022-11-16T08:55:28.282Z,74.43
2022-11-16T09:00:30.673Z,74.44
2022-11-16T09:05:32.952Z,74.41
2022-11-16T09:10:35.396Z,74.13
2022-11-16T09:15:37.679Z,73.80
2022-11-16T09:20:45.184Z,73.94
2022-11-16T09:25:48.990Z,73.92
2022-11-16T09:30:52.187Z,73.32
2022-11-16T09:35:54.664Z,72.95
2022-11-16T09:40:57.625Z,73.08
2022-11-16T09:46:26.253Z,72.73
2022-11-16T09:51:32.986Z,72.21
2022-11-16T09:56:40.576Z,71.50
2022-11-16T10:01:46.701Z,71.44
2022-11-16T10:07:27.447Z,71.26
2022-11-16T10:12:46.673Z,70.68
2022-11-16T10:18:04.800Z,70.76
2022-11-16T10:23:19.688Z,70.60
2022-11-16T10:28:57.103Z,70.08
2022-11-16T10:34:02.147Z,69.49
2022-11-16T10:39:13.672Z,69.30
2022-11-16T10:44:29.652Z,68.58
2022-11-16T10:50:00.904Z,67.88
2022-11-16T10:55:03.276Z,67.58
2022-11-16T11:00:11.164Z,67.38
2022-11-16T11:05:26.887Z,66.04
2022-11-16T11:10:42.538Z,66.41
2022-11-16T11:15:45.392Z,65.66
2022-11-16T11:20:51.508Z,65.57
2022-11-16T11:25:59.164Z,64.95
2022-11-16T11:31:06.944Z,63.12
2022-11-16T11:36:25.286Z,63.04
2022-11-16T11:41:34.169Z,61.82
2022-11-16T11:47:35.184Z,61.54
2022-11-16T11:52:17.847Z,61.19
2022-11-16T11:57:24.254Z,61.06
2022-11-16T12:03:03.846Z,61.19
2022-11-16T12:08:30.995Z,60.97
2022-11-16T12:14:03.568Z,59.01
2022-11-16T12:19:36.484Z,57.98
2022-11-16T12:24:57.290Z,57.56
2022-11-16T12:30:09.809Z,57.32
2022-11-16T12:35:29.906Z,56.76
2022-11-16T12:40:50.656Z,55.93
2022-11-16T12:46:06.953Z,55.30
2022-11-16T12:51:15.239Z,55.36
2022-11-16T12:56:26.370Z,55.06
2022-11-16T13:01:49.678Z,54.86
2022-11-16T13:07:22.845Z,54.47
2022-11-16T13:12:27.024Z,53.85
2022-11-16T13:17:33.772Z,53.89
2022-11-16T13:22:39.883Z,53.32
2022-11-16T13:27:53.449Z,53.35
2022-11-16T13:33:02.811Z,52.47
2022-11-16T13:38:09.422Z,53.53
2022-11-16T13:43:11.731Z,50.72
2022-11-16T13:48:21.984Z,49.58
2022-11-16T13:58:58.669Z,48.27
2022-11-16T14:04:43.467Z,48.24
2022-11-16T14:09:52.104Z,47.44
2022-11-16T14:15:19.487Z,47.44
2022-11-16T14:20:49.059Z,44.12
2022-11-16T14:25:56.774Z,45.72
2022-11-16T14:31:15.634Z,46.87
2022-11-16T14:36:18.418Z,47.44
2022-11-16T14:41:24.202Z,47.51
2022-11-16T14:46:28.579Z,48.23
2022-11-16T14:51:34.686Z,48.59
2022-11-16T14:56:36.965Z,48.63
2022-11-16T15:01:40.751Z,49.00
2022-11-16T15:06:50.758Z,49.78
2022-11-16T15:12:11.830Z,50.70
2022-11-16T15:17:27.234Z,51.51
2022-11-16T15:22:40.076Z,52.08
2022-11-16T15:27:43.476Z,52.60
2022-11-16T15:32:48.313Z,53.16
2022-11-16T15:38:21.461Z,53.76
2022-11-16T15:43:33.633Z,54.48
2022-11-16T15:48:39.344Z,54.73
2022-11-16T15:53:49.474Z,54.71
2022-11-16T15:58:53.579Z,55.05
2022-11-16T16:04:07.183Z,55.57
2022-11-16T16:09:19.019Z,55.72
2022-11-16T16:14:27.021Z,55.86
2022-11-16T16:19:47.224Z,56.18
2022-11-16T16:24:49.541Z,56.63
2022-11-16T16:29:54.022Z,56.96
2022-11-16T16:35:01.736Z,57.60
2022-11-16T16:40:04.791Z,58.24
2022-11-16T16:45:25.020Z,58.66
2022-11-16T16:50:27.434Z,58.86
2022-11-16T16:55:32.958Z,59.27
2022-11-16T17:00:39.363Z,60.29
2022-11-16T17:05:41.684Z,59.80
2022-11-16T17:10:43.839Z,60.09
2022-11-16T17:15:46.340Z,60.21
2022-11-16T17:20:48.603Z,60.73
2022-11-16T17:25:50.941Z,60.78
2022-11-16T17:30:53.336Z,60.98
2022-11-16T17:35:58.212Z,61.01
2022-11-16T17:41:22.105Z,61.26
2022-11-16T17:46:26.134Z,61.63
2022-11-16T17:51:30.288Z,62.16
2022-11-16T17:56:32.712Z,62.48
2022-11-16T18:01:35.089Z,62.40
2022-11-16T18:06:38.200Z,62.55
2022-11-16T18:11:40.745Z,63.20
2022-11-16T18:16:43.867Z,63.11
2022-11-16T18:21:48.466Z,63.60
2022-11-16T18:26:50.706Z,64.07
2022-11-16T18:31:52.964Z,64.29
2022-11-16T18:36:55.884Z,64.50
2022-11-16T18:41:58.080Z,64.33
2022-11-16T18:47:00.355Z,64.73
2022-11-16T18:52:02.593Z,64.38
2022-11-16T18:57:04.882Z,65.10
2022-11-16T19:02:07.454Z,65.33
2022-11-16T19:07:09.931Z,65.23
2022-11-16T19:12:13.093Z,65.32
2022-11-16T19:17:16.478Z,65.49
2022-11-16T19:22:20.111Z,65.59
2022-11-16T19:27:22.433Z,66.39
2022-11-16T19:32:25.155Z,66.45
2022-11-16T19:37:27.532Z,66.74
2022-11-16T19:42:29.760Z,66.89
2022-11-16T19:47:31.989Z,66.71
2022-11-16T19:52:34.407Z,67.07
2022-11-16T19:57:36.661Z,67.25
2022-11-16T20:02:39.120Z,67.48
2022-11-16T20:07:41.325Z,67.66
2022-11-16T20:12:43.905Z,67.79
2022-11-16T20:17:46.146Z,68.08
2022-11-16T20:22:51.239Z,67.87
2022-11-16T20:27:53.493Z,68.00
2022-11-16T20:32:55.744Z,68.07
2022-11-16T20:37:58.054Z,67.89
2022-11-16T20:43:00.673Z,68.58
2022-11-16T20:48:03.107Z,68.44
2022-11-16T20:53:05.463Z,68.40
2022-11-16T20:58:07.743Z,68.64
2022-11-16T21:03:09.985Z,68.90
2022-11-16T21:08:13.045Z,68.97
2022-11-16T21:13:36.369Z,68.90
2022-11-16T21:18:39.958Z,69.59
2022-11-16T21:23:45.479Z,69.49
2022-11-16T21:28:47.943Z,69.60
2022-11-16T21:33:50.161Z,69.65
2022-11-16T21:38:53.036Z,70.01
2022-11-16T21:43:55.516Z,69.67
2022-11-16T21:48:58.486Z,70.10
2022-11-16T21:54:00.775Z,70.38
2022-11-16T21:59:02.977Z,70.13
2022-11-16T22:04:27.407Z,70.77
2022-11-16T22:09:29.752Z,70.85
2022-11-16T22:14:31.955Z,70.75
2022-11-16T22:19:34.113Z,70.73
2022-11-16T22:24:36.294Z,70.90
2022-11-16T22:29:38.619Z,70.44
2022-11-16T22:34:40.846Z,70.77
2022-11-16T22:39:43.067Z,71.03
2022-11-16T22:44:45.272Z,71.30
2022-11-16T22:49:47.889Z,71.03
2022-11-16T22:54:50.041Z,70.55
2022-11-16T22:59:52.368Z,70.81
2022-11-16T23:04:54.537Z,70.65
2022-11-16T23:09:56.695Z,70.64
2022-11-16T23:15:31.220Z,70.61
2022-11-16T23:20:53.591Z,71.02
2022-11-16T23:26:13.976Z,71.10
2022-11-16T23:31:16.195Z,70.89
2022-11-16T23:36:18.384Z,71.13
2022-11-16T23:41:39.132Z,71.22
2022-11-16T23:46:41.324Z,71.38
2022-11-16T23:51:43.609Z,72.02
2022-11-16T23:56:45.766Z,71.82
